createdAt,value
2022-12-07T00:01:17.508Z,66.16
2022-12-07T00:04:19.368Z,66.72
2022-12-07T00:07:26.327Z,62.46
2022-12-07T00:10:29.539Z,66.29
2022-12-07T00:13:32.027Z,66.00
2022-12-07T00:16:34.114Z,67.59
2022-12-07T00:19:35.981Z,68.80
2022-12-07T00:22:37.890Z,66.25
2022-12-07T00:25:39.704Z,67.37
2022-12-07T00:28:41.532Z,64.26
2022-12-07T00:31:43.424Z,65.35
2022-12-07T00:34:45.331Z,66.25
2022-12-07T00:37:47.128Z,67.51
2022-12-07T00:41:15.475Z,64.61
2022-12-07T00:44:17.309Z,64.19
2022-12-07T00:47:19.155Z,65.24
2022-12-07T00:50:20.965Z,67.93
2022-12-07T00:53:22.859Z,65.51
2022-12-07T00:56:25.753Z,66.73
2022-12-07T00:59:27.643Z,65.76
2022-12-07T01:02:29.467Z,66.12
2022-12-07T01:05:31.284Z,66.42
2022-12-07T01:08:33.409Z,65.32
2022-12-07T01:11:35.301Z,63.42
2022-12-07T01:14:37.202Z,63.10
2022-12-07T01:17:39.059Z,66.06
2022-12-07T01:20:41.270Z,65.04
2022-12-07T01:23:43.149Z,65.63
2022-12-07T01:26:44.964Z,65.21
2022-12-07T01:29:46.863Z,65.15
2022-12-07T01:32:48.719Z,65.35
2022-12-07T01:35:50.513Z,65.95
2022-12-07T01:38:53.714Z,64.82
2022-12-07T01:41:55.605Z,65.62
2022-12-07T01:45:16.270Z,66.46
2022-12-07T01:48:18.714Z,64.87
2022-12-07T01:51:20.511Z,62.85
2022-12-07T01:54:22.364Z,61.73
2022-12-07T01:57:24.265Z,61.15
2022-12-07T02:00:26.133Z,63.30
2022-12-07T02:03:54.237Z,63.19
2022-12-07T02:06:56.113Z,66.14
2022-12-07T02:09:57.973Z,64.46
2022-12-07T02:13:04.379Z,63.49
2022-12-07T02:16:06.327Z,61.03
2022-12-07T02:19:14.224Z,61.99
2022-12-07T02:22:34.625Z,63.36
2022-12-07T02:25:39.436Z,62.73
2022-12-07T02:28:59.362Z,62.36
2022-12-07T02:32:04.682Z,60.98
2022-12-07T02:35:07.645Z,61.55
2022-12-07T02:38:17.465Z,61.19
2022-12-07T02:41:21.395Z,63.54
2022-12-07T02:44:24.496Z,63.82
2022-12-07T02:47:26.371Z,64.43
2022-12-07T02:50:28.581Z,63.76
2022-12-07T02:53:34.236Z,66.15
2022-12-07T02:56:45.170Z,63.55
2022-12-07T02:59:49.818Z,64.08
2022-12-07T03:02:55.771Z,63.18
2022-12-07T03:06:03.428Z,65.03
2022-12-07T03:09:12.371Z,61.92
2022-12-07T03:12:15.578Z,63.25
2022-12-07T03:15:20.726Z,62.07
2022-12-07T03:18:23.008Z,61.15
2022-12-07T03:21:27.399Z,61.55
2022-12-07T03:24:30.475Z,61.59
2022-12-07T03:27:33.884Z,61.25
2022-12-07T03:30:56.295Z,62.00
2022-12-07T03:34:13.433Z,62.30
2022-12-07T03:37:41.257Z,63.29
2022-12-07T03:40:43.046Z,66.35
2022-12-07T03:43:44.896Z,66.06
2022-12-07T03:46:55.901Z,64.30
2022-12-07T03:50:05.803Z,63.66
2022-12-07T03:53:26.819Z,66.01
2022-12-07T03:56:28.657Z,65.78
2022-12-07T03:59:30.558Z,68.40
2022-12-07T04:02:32.459Z,67.60
2022-12-07T04:05:34.307Z,68.25
2022-12-07T04:08:36.173Z,70.10
2022-12-07T04:11:38.023Z,71.09
2022-12-07T04:14:39.835Z,71.66
2022-12-07T04:17:41.600Z,71.91
2022-12-07T04:20:43.753Z,70.41
2022-12-07T04:23:45.596Z,70.20
2022-12-07T04:26:47.413Z,68.86
2022-12-07T04:29:49.233Z,69.16
2022-12-07T04:32:51.042Z,67.39
2022-12-07T04:35:52.968Z,71.92
2022-12-07T04:38:55.816Z,66.42
2022-12-07T04:41:58.017Z,69.58
2022-12-07T04:44:59.841Z,71.69
2022-12-07T04:48:01.650Z,70.65
2022-12-07T04:51:04.535Z,68.35
2022-12-07T04:54:06.405Z,72.33
2022-12-07T04:57:08.285Z,70.87
2022-12-07T05:00:10.412Z,70.09
2022-12-07T05:03:12.200Z,71.02
2022-12-07T05:06:14.298Z,71.20
2022-12-07T05:09:16.155Z,69.28
2022-12-07T05:12:17.990Z,65.83
2022-12-07T05:15:19.842Z,71.30
2022-12-07T05:18:21.880Z,67.76
2022-12-07T05:21:23.679Z,65.12
2022-12-07T05:24:25.548Z,66.11
2022-12-07T05:27:27.397Z,66.62
2022-12-07T05:30:29.285Z,64.87
2022-12-07T05:33:31.129Z,64.22
2022-12-07T05:36:32.926Z,65.24
2022-12-07T05:39:34.713Z,64.80
2022-12-07T05:42:36.503Z,64.50
2022-12-07T05:45:38.364Z,65.27
2022-12-07T05:48:40.172Z,65.41
2022-12-07T05:51:41.977Z,65.86
2022-12-07T05:54:43.868Z,66.79
2022-12-07T05:58:05.659Z,66.87
2022-12-07T06:01:07.448Z,66.01
2022-12-07T06:04:09.336Z,66.26
2022-12-07T06:07:12.199Z,67.31
2022-12-07T06:10:14.135Z,66.28
2022-12-07T06:13:15.970Z,66.40
2022-12-07T06:16:17.851Z,67.63
2022-12-07T06:19:19.881Z,67.22
2022-12-07T06:22:21.707Z,70.31
2022-12-07T06:25:23.551Z,67.66
2022-12-07T06:28:25.865Z,69.58
2022-12-07T06:31:27.819Z,69.98
2022-12-07T06:34:29.719Z,68.68
2022-12-07T06:37:31.699Z,68.87
2022-12-07T06:40:33.590Z,65.87
2022-12-07T06:47:58.798Z,62.83
2022-12-07T06:51:17.559Z,62.45
2022-12-07T06:54:23.061Z,64.39
2022-12-07T06:57:31.111Z,64.10
2022-12-07T07:00:49.532Z,64.42
2022-12-07T07:03:54.013Z,65.97
2022-12-07T07:07:00.247Z,69.12
2022-12-07T07:10:04.621Z,66.06
2022-12-07T07:13:12.890Z,66.13
2022-12-07T07:16:25.383Z,63.89
2022-12-07T07:19:29.309Z,63.57
2022-12-07T07:22:51.043Z,65.35
2022-12-07T07:25:54.148Z,65.38
2022-12-07T07:28:57.150Z,69.18
2022-12-07T07:32:06.502Z,68.07
2022-12-07T07:35:22.090Z,67.20
2022-12-07T07:38:36.127Z,66.50
2022-12-07T07:42:04.761Z,68.62
2022-12-07T07:45:25.365Z,68.63
2022-12-07T07:48:40.575Z,69.10
2022-12-07T07:55:22.114Z,65.04
2022-12-07T07:58:39.864Z,66.00
2022-12-07T08:01:56.103Z,67.07
2022-12-07T08:05:21.985Z,65.88
2022-12-07T08:08:33.614Z,67.25
2022-12-07T08:11:49.143Z,65.54
2022-12-07T08:14:57.366Z,63.51
2022-12-07T08:18:08.782Z,65.25
2022-12-07T08:21:32.392Z,61.84
2022-12-07T08:28:04.709Z,60.93
2022-12-07T08:31:39.711Z,62.16
2022-12-07T08:34:49.285Z,63.23
2022-12-07T08:37:58.307Z,63.05
2022-12-07T08:41:05.020Z,64.94
2022-12-07T08:44:28.142Z,65.31
2022-12-07T08:48:00.480Z,61.96
2022-12-07T08:51:15.409Z,62.72
2022-12-07T08:55:06.548Z,63.52
2022-12-07T08:58:15.666Z,62.87
2022-12-07T09:01:52.770Z,60.79
2022-12-07T09:08:48.127Z,60.23
2022-12-07T09:12:01.751Z,62.46
2022-12-07T09:15:11.527Z,60.65
2022-12-07T09:18:26.686Z,61.57
2022-12-07T09:21:32.137Z,61.44
2022-12-07T09:24:50.506Z,59.68
2022-12-07T09:31:24.266Z,58.43
2022-12-07T09:34:30.703Z,58.30
2022-12-07T09:37:38.891Z,56.47
2022-12-07T09:40:48.090Z,55.26
2022-12-07T09:43:58.185Z,57.12
2022-12-07T09:47:11.631Z,58.00
2022-12-07T09:50:27.732Z,56.71
2022-12-07T09:53:46.038Z,58.98
2022-12-07T09:56:56.855Z,58.40
2022-12-07T10:00:16.114Z,58.28
2022-12-07T10:03:43.827Z,57.40
2022-12-07T10:07:06.357Z,58.28
2022-12-07T10:11:02.956Z,55.38
2022-12-07T10:15:06.254Z,54.29
2022-12-07T10:18:18.891Z,54.80
2022-12-07T10:21:27.311Z,56.08
2022-12-07T10:24:31.294Z,55.95
2022-12-07T10:27:41.983Z,52.78
2022-12-07T10:30:54.975Z,53.40
2022-12-07T10:34:06.504Z,53.99
2022-12-07T10:37:15.098Z,54.92
2022-12-07T10:40:46.225Z,50.41
2022-12-07T10:47:38.084Z,49.14
2022-12-07T10:51:02.411Z,51.95
2022-12-07T10:54:52.371Z,51.92
2022-12-07T10:58:03.808Z,51.47
2022-12-07T11:01:13.619Z,50.59
2022-12-07T11:04:18.633Z,49.13
2022-12-07T11:07:25.065Z,51.32
2022-12-07T11:10:27.038Z,52.24
2022-12-07T11:13:30.535Z,51.43
2022-12-07T11:16:41.271Z,53.20
2022-12-07T11:19:55.342Z,52.21
2022-12-07T11:23:03.571Z,53.07
2022-12-07T11:26:05.439Z,50.97
2022-12-07T11:29:20.928Z,50.79
2022-12-07T11:32:42.063Z,49.75
2022-12-07T11:35:44.376Z,51.18
2022-12-07T11:38:52.109Z,53.09
2022-12-07T11:41:55.917Z,50.62
2022-12-07T11:44:59.845Z,53.54
2022-12-07T11:48:04.906Z,52.96
2022-12-07T11:51:07.934Z,52.43
2022-12-07T11:54:15.462Z,53.33
2022-12-07T11:57:20.649Z,51.23
2022-12-07T12:00:22.524Z,51.81
2022-12-07T12:03:31.501Z,54.17
2022-12-07T12:06:36.239Z,55.71
2022-12-07T12:09:51.985Z,51.58
2022-12-07T12:16:38.939Z,51.04
2022-12-07T12:19:46.825Z,53.10
2022-12-07T12:22:51.496Z,54.53
2022-12-07T12:25:54.230Z,52.36
2022-12-07T12:28:56.261Z,51.90
2022-12-07T12:32:17.700Z,47.64
2022-12-07T12:35:19.711Z,46.33
2022-12-07T12:38:32.196Z,45.10
2022-12-07T12:41:37.362Z,43.42
2022-12-07T12:44:40.332Z,38.86
2022-12-07T12:47:44.347Z,38.19
2022-12-07T12:50:46.182Z,38.24
2022-12-07T12:53:48.024Z,40.19
2022-12-07T12:57:08.391Z,40.39
2022-12-07T13:00:16.651Z,38.68
2022-12-07T13:03:28.496Z,41.67
2022-12-07T13:06:36.680Z,40.81
2022-12-07T13:09:38.603Z,43.15
2022-12-07T13:12:40.474Z,43.68
2022-12-07T13:15:43.703Z,49.97
2022-12-07T13:18:45.784Z,51.76
2022-12-07T13:21:47.602Z,50.87
2022-12-07T13:24:49.625Z,52.67
2022-12-07T13:28:11.984Z,51.11
2022-12-07T13:31:14.156Z,49.48
2022-12-07T13:34:35.551Z,50.75
2022-12-07T13:37:38.949Z,50.93
2022-12-07T13:40:41.089Z,49.13
2022-12-07T13:43:43.827Z,50.21
2022-12-07T13:47:04.502Z,48.69
2022-12-07T13:50:23.142Z,49.91
2022-12-07T13:53:25.686Z,48.40
2022-12-07T13:56:28.709Z,53.12
2022-12-07T13:59:34.256Z,51.30
2022-12-07T14:02:39.939Z,53.25
2022-12-07T14:05:45.072Z,53.07
2022-12-07T14:08:46.963Z,51.88
2022-12-07T14:11:49.132Z,54.54
2022-12-07T14:14:51.015Z,52.79
2022-12-07T14:17:53.363Z,52.47
2022-12-07T14:21:10.899Z,52.71
2022-12-07T14:24:20.335Z,53.19
2022-12-07T14:27:23.429Z,55.18
2022-12-07T14:30:30.400Z,55.36
2022-12-07T14:33:32.427Z,56.33
2022-12-07T14:36:34.310Z,56.92
2022-12-07T14:39:41.726Z,55.34
2022-12-07T14:42:44.613Z,54.50
2022-12-07T14:45:46.829Z,52.94
2022-12-07T14:55:43.746Z,53.89
2022-12-07T14:58:45.756Z,58.13
2022-12-07T15:01:47.900Z,55.25
2022-12-07T15:04:49.884Z,55.02
2022-12-07T15:07:52.353Z,55.52
2022-12-07T15:10:54.365Z,54.40
2022-12-07T15:14:14.692Z,53.00
2022-12-07T15:17:27.827Z,53.20
2022-12-07T15:20:33.455Z,53.91
2022-12-07T15:23:35.824Z,53.51
2022-12-07T15:26:37.997Z,54.39
2022-12-07T15:29:40.331Z,55.01
2022-12-07T15:32:42.244Z,55.17
2022-12-07T15:35:45.006Z,54.60
2022-12-07T15:39:13.204Z,54.26
2022-12-07T15:42:09.165Z,56.71
2022-12-07T15:45:11.203Z,58.77
2022-12-07T15:48:29.506Z,55.50
2022-12-07T15:51:31.796Z,56.77
2022-12-07T15:54:33.937Z,54.97
2022-12-07T15:57:36.642Z,54.95
2022-12-07T16:00:38.724Z,54.42
2022-12-07T16:03:40.620Z,55.26
2022-12-07T16:06:42.587Z,56.17
2022-12-07T16:09:44.655Z,55.44
2022-12-07T16:12:46.532Z,54.96
2022-12-07T16:15:48.627Z,53.92
2022-12-07T16:18:51.184Z,53.10
2022-12-07T16:21:53.341Z,55.34
2022-12-07T16:24:55.395Z,55.04
2022-12-07T16:27:57.446Z,55.94
2022-12-07T16:31:03.558Z,54.80
2022-12-07T16:34:05.631Z,54.16
2022-12-07T16:37:07.524Z,55.48
2022-12-07T16:40:10.196Z,54.15
2022-12-07T16:43:12.653Z,52.94
2022-12-07T16:46:16.001Z,54.33
2022-12-07T16:49:18.228Z,55.00
2022-12-07T16:52:21.403Z,54.24
2022-12-07T16:55:23.522Z,55.19
2022-12-07T16:58:25.391Z,54.08
2022-12-07T17:01:29.389Z,54.46
2022-12-07T17:04:31.518Z,54.98
2022-12-07T17:07:33.514Z,54.79
2022-12-07T17:10:36.670Z,55.73
2022-12-07T17:13:57.270Z,56.70
2022-12-07T17:17:01.616Z,54.96
2022-12-07T17:20:04.923Z,55.34
2022-12-07T17:23:06.897Z,56.73
2022-12-07T17:26:09.975Z,54.46
2022-12-07T17:29:12.906Z,52.97
2022-12-07T17:32:15.048Z,53.67
2022-12-07T17:35:17.034Z,53.46
2022-12-07T17:38:19.118Z,53.42
2022-12-07T17:41:40.956Z,53.56
2022-12-07T17:44:42.922Z,54.14
2022-12-07T17:47:45.003Z,53.14
2022-12-07T17:51:05.432Z,52.84
2022-12-07T17:54:07.321Z,51.45
2022-12-07T17:57:09.432Z,51.78
2022-12-07T18:00:12.220Z,52.26
2022-12-07T18:03:14.241Z,55.77
2022-12-07T18:06:16.200Z,53.48
2022-12-07T18:09:18.052Z,55.38
2022-12-07T18:12:19.957Z,56.67
2022-12-07T18:15:21.826Z,55.48
2022-12-07T18:18:23.691Z,53.36
2022-12-07T18:21:26.175Z,53.51
2022-12-07T18:24:34.815Z,53.38
2022-12-07T18:27:38.603Z,55.97
2022-12-07T18:31:13.057Z,56.54
2022-12-07T18:34:08.927Z,57.32
2022-12-07T18:37:11.067Z,56.87
2022-12-07T18:40:13.211Z,57.59
2022-12-07T18:43:15.561Z,55.74
2022-12-07T18:46:20.777Z,54.91
2022-12-07T18:49:22.683Z,55.74
2022-12-07T18:52:24.549Z,57.46
2022-12-07T18:55:26.912Z,56.34
2022-12-07T18:58:28.789Z,58.97
2022-12-07T19:01:31.004Z,58.05
2022-12-07T19:04:33.102Z,55.89
2022-12-07T19:07:35.253Z,54.79
2022-12-07T19:10:37.531Z,56.29
2022-12-07T19:13:39.608Z,57.00
2022-12-07T19:16:42.251Z,56.15
2022-12-07T19:19:45.022Z,57.29
2022-12-07T19:22:46.878Z,56.81
2022-12-07T19:25:48.757Z,60.17
2022-12-07T19:28:50.750Z,58.82
2022-12-07T19:31:52.603Z,57.74
2022-12-07T19:34:56.268Z,57.05
2022-12-07T19:37:58.117Z,55.11
2022-12-07T19:41:06.810Z,55.56
2022-12-07T19:44:12.874Z,54.61
2022-12-07T19:47:17.263Z,58.16
2022-12-07T19:50:19.172Z,55.84
2022-12-07T19:53:21.076Z,55.53
2022-12-07T19:56:22.957Z,56.75
2022-12-07T19:59:25.823Z,57.83
2022-12-07T20:02:27.757Z,59.38
2022-12-07T20:05:29.684Z,58.83
2022-12-07T20:08:31.529Z,59.19
2022-12-07T20:11:51.860Z,58.58
2022-12-07T20:14:53.838Z,56.44
2022-12-07T20:17:55.660Z,55.46
2022-12-07T20:20:58.507Z,58.35
2022-12-07T20:24:01.125Z,57.42
2022-12-07T20:27:03.575Z,59.19
2022-12-07T20:30:05.877Z,58.76
2022-12-07T20:33:07.912Z,57.26
2022-12-07T20:36:12.673Z,56.87
2022-12-07T20:39:14.575Z,56.09
2022-12-07T20:42:35.648Z,56.23
2022-12-07T20:45:43.592Z,56.59
2022-12-07T20:48:45.598Z,57.04
2022-12-07T20:51:47.757Z,54.84
2022-12-07T20:54:49.742Z,56.07
2022-12-07T20:57:51.584Z,54.58
2022-12-07T21:00:53.472Z,54.74
2022-12-07T21:03:55.844Z,55.57
2022-12-07T21:06:57.798Z,54.54
2022-12-07T21:09:59.672Z,53.81
2022-12-07T21:13:01.504Z,55.72
2022-12-07T21:16:10.866Z,53.36
2022-12-07T21:19:12.997Z,54.54
2022-12-07T21:22:14.874Z,51.96
2022-12-07T21:25:16.763Z,51.69
2022-12-07T21:28:18.617Z,52.14
2022-12-07T21:31:21.223Z,53.00
2022-12-07T21:34:23.409Z,54.23
2022-12-07T21:37:25.317Z,53.35
2022-12-07T21:40:27.319Z,52.50
2022-12-07T21:43:29.150Z,52.08
2022-12-07T21:46:34.076Z,52.90
2022-12-07T21:49:36.637Z,52.58
2022-12-07T21:52:38.649Z,53.62
2022-12-07T21:55:41.078Z,53.43
2022-12-07T21:58:43.229Z,53.55
2022-12-07T22:01:47.507Z,58.25
2022-12-07T22:04:49.450Z,56.76
2022-12-07T22:07:51.341Z,56.37
2022-12-07T22:10:53.159Z,54.81
2022-12-07T22:14:13.621Z,55.16
2022-12-07T22:17:15.454Z,55.49
2022-12-07T22:20:17.828Z,56.72
2022-12-07T22:23:19.741Z,59.11
2022-12-07T22:26:24.545Z,60.61
2022-12-07T22:29:26.844Z,60.17
2022-12-07T22:35:54.129Z,60.02
2022-12-07T22:38:56.040Z,58.57
2022-12-07T22:41:57.893Z,58.07
2022-12-07T22:44:59.824Z,59.81
2022-12-07T22:48:01.784Z,59.28
2022-12-07T22:51:03.916Z,60.96
2022-12-07T22:54:07.482Z,60.16
2022-12-07T22:57:09.355Z,59.47
2022-12-07T23:00:11.528Z,59.39
2022-12-07T23:03:13.941Z,61.96
2022-12-07T23:06:17.369Z,61.53
2022-12-07T23:09:19.194Z,64.34
2022-12-07T23:12:39.898Z,62.72
2022-12-07T23:15:41.718Z,62.95
2022-12-07T23:18:43.568Z,65.45
2022-12-07T23:21:45.453Z,61.74
2022-12-07T23:24:47.261Z,63.21
2022-12-07T23:27:49.106Z,63.88
2022-12-07T23:30:50.963Z,60.60
2022-12-07T23:33:52.797Z,60.06
2022-12-07T23:36:54.788Z,61.06
2022-12-07T23:39:56.595Z,61.41
2022-12-07T23:42:58.697Z,62.81
2022-12-07T23:46:00.615Z,60.85
2022-12-07T23:49:03.163Z,61.96
2022-12-07T23:52:05.263Z,63.22
2022-12-07T23:55:07.438Z,62.48
2022-12-07T23:58:09.328Z,61.06
